Time;durP1;ratioP1;P1;durP2;ratioP2;P2;SDS_P1;SDS_P2;PMS_P1;PMS_P2;Temp;Humidity;BMP_temperature;BMP_pressure;BME280_temperature;BME280_humidity;BME280_pressure;Samples;Min_cycle;Max_cycle;Signal;HPM_P1;HPM_P2
2022/03/22 00:01:06;;;;;;;25.63;21.40;;;;;;;;;;5008337;28;20522;-82
2022/03/22 00:03:37;;;;;;;24.63;20.73;;;;;;;;;;5023547;28;20518;-81
2022/03/22 00:06:08;;;;;;;24.10;21.00;;;;;;;;;;5022613;28;20217;-82
2022/03/22 00:08:33;;;;;;;25.43;20.93;;;;;;;;;;5022439;28;20471;-81
2022/03/22 00:11:05;;;;;;;23.97;21.03;;;;;;;;;;5023409;28;20427;-81
2022/03/22 00:13:30;;;;;;;22.77;20.33;;;;;;;;;;5024877;28;20667;-82
2022/03/22 00:15:58;;;;;;;26.90;22.20;;;;;;;;;;5020791;28;20469;-81
2022/03/22 00:18:24;;;;;;;25.60;21.10;;;;;;;;;;5024232;28;20189;-81
2022/03/22 00:20:57;;;;;;;26.17;22.33;;;;;;;;;;5039175;28;20436;-81
2022/03/22 00:23:30;;;;;;;25.90;22.07;;;;;;;;;;5024135;28;20189;-81
2022/03/22 00:25:55;;;;;;;27.77;22.00;;;;;;;;;;5022208;28;20450;-80
2022/03/22 00:28:38;;;;;;;27.10;21.90;;;;;;;;;;5020026;28;20462;-81
2022/03/22 00:31:27;;;;;;;25.43;20.70;;;;;;;;;;5024030;28;20168;-81
2022/03/22 00:33:52;;;;;;;24.90;21.00;;;;;;;;;;5020676;28;20435;-80
2022/03/22 00:36:22;;;;;;;23.27;20.67;;;;;;;;;;5022567;28;20455;-81
2022/03/22 00:38:48;;;;;;;26.73;22.17;;;;;;;;;;5023146;28;20185;-81
2022/03/22 00:41:19;;;;;;;22.33;19.93;;;;;;;;;;5022238;28;20450;-81
2022/03/22 00:46:30;;;;;;;26.00;22.27;;;;;;;;;;5020113;28;20450;-81
2022/03/22 00:49:02;;;;;;;25.13;22.43;;;;;;;;;;5024851;28;20847;-80
2022/03/22 00:51:33;;;;;;;25.07;22.10;;;;;;;;;;5019116;28;20173;-80
2022/03/22 00:54:02;;;;;;;24.10;20.37;;;;;;;;;;5020580;28;20446;-80
2022/03/22 00:56:54;;;;;;;27.60;21.90;;;;;;;;;;5023875;28;20956;-81
2022/03/22 01:02:03;;;;;;;27.23;21.43;;;;;;;;;;5019155;28;20438;-81
2022/03/22 01:04:37;;;;;;;26.10;21.97;;;;;;;;;;5020470;28;20423;-81
2022/03/22 01:07:03;;;;;;;26.23;21.40;;;;;;;;;;5020080;28;20336;-81
2022/03/22 01:09:28;;;;;;;29.63;22.53;;;;;;;;;;5022097;28;20470;-81
2022/03/22 01:11:55;;;;;;;26.57;22.97;;;;;;;;;;5025477;28;20539;-80
2022/03/22 01:14:20;;;;;;;22.80;20.37;;;;;;;;;;5019289;28;20648;-80
2022/03/22 01:16:45;;;;;;;23.50;20.93;;;;;;;;;;5016272;22;20510;-71
2022/03/22 01:19:10;;;;;;;28.00;23.53;;;;;;;;;;4997935;28;20174;-70
2022/03/22 01:21:37;;;;;;;25.63;21.33;;;;;;;;;;5001032;28;20173;-71
2022/03/22 01:27:00;;;;;;;26.33;22.20;;;;;;;;;;4928621;28;20530;-70
2022/03/22 01:29:31;;;;;;;27.40;22.23;;;;;;;;;;5000412;28;20971;-71
2022/03/22 01:31:56;;;;;;;26.03;22.73;;;;;;;;;;5001444;28;20184;-71
2022/03/22 01:34:24;;;;;;;26.40;22.43;;;;;;;;;;5001918;28;20507;-71
2022/03/22 01:36:53;;;;;;;28.10;22.10;;;;;;;;;;4998688;28;20217;-71
2022/03/22 01:39:18;;;;;;;27.70;21.50;;;;;;;;;;5003634;28;20953;-71
2022/03/22 01:41:49;;;;;;;26.30;21.57;;;;;;;;;;5004068;28;20436;-71
2022/03/22 01:44:14;;;;;;;23.90;21.30;;;;;;;;;;5000584;28;20184;-72
2022/03/22 01:46:40;;;;;;;27.90;22.70;;;;;;;;;;5002102;28;20447;-71
2022/03/22 01:49:05;;;;;;;27.97;21.87;;;;;;;;;;4999105;28;20197;-71
2022/03/22 01:51:31;;;;;;;25.30;21.10;;;;;;;;;;4998202;28;20182;-71
2022/03/22 01:53:57;;;;;;;24.37;21.10;;;;;;;;;;5000927;28;20188;-70
2022/03/22 01:56:25;;;;;;;27.67;23.37;;;;;;;;;;4998401;28;20458;-70
2022/03/22 01:58:51;;;;;;;24.50;20.67;;;;;;;;;;5000506;28;20185;-71
2022/03/22 02:06:56;;;;;;;30.33;22.80;;;;;;;;;;5000693;28;20467;-71
2022/03/22 02:09:45;;;;;;;27.17;21.73;;;;;;;;;;4993825;28;20492;-71
2022/03/22 02:12:10;;;;;;;25.80;20.37;;;;;;;;;;4962667;28;20557;-70
2022/03/22 02:14:35;;;;;;;27.00;21.00;;;;;;;;;;5000271;28;20928;-71
2022/03/22 02:17:08;;;;;;;23.63;20.33;;;;;;;;;;4999378;28;20229;-71
2022/03/22 02:19:36;;;;;;;25.53;20.70;;;;;;;;;;5000894;28;20189;-71
2022/03/22 02:22:01;;;;;;;24.90;21.80;;;;;;;;;;4998979;28;20530;-70
2022/03/22 02:24:30;;;;;;;23.70;20.90;;;;;;;;;;5000755;28;20462;-71
2022/03/22 02:26:56;;;;;;;25.90;22.10;;;;;;;;;;5003214;28;20259;-72
2022/03/22 02:29:23;;;;;;;25.93;20.93;;;;;;;;;;4999401;28;20467;-71
2022/03/22 02:31:49;;;;;;;23.77;20.10;;;;;;;;;;4999709;28;20173;-71
2022/03/22 02:34:14;;;;;;;25.60;21.73;;;;;;;;;;4998804;28;20814;-71
2022/03/22 02:36:39;;;;;;;26.90;21.50;;;;;;;;;;4998351;28;20200;-71
2022/03/22 02:39:04;;;;;;;26.33;21.70;;;;;;;;;;4999223;28;20252;-71
2022/03/22 02:41:30;;;;;;;25.03;20.87;;;;;;;;;;4998713;28;20189;-70
2022/03/22 02:46:41;;;;;;;24.97;20.83;;;;;;;;;;4997920;28;20213;-71
2022/03/22 02:49:09;;;;;;;29.00;21.63;;;;;;;;;;4997211;28;21331;-71
2022/03/22 02:51:34;;;;;;;24.87;20.43;;;;;;;;;;4998167;28;20260;-71
2022/03/22 02:54:09;;;;;;;24.07;20.07;;;;;;;;;;5000101;28;20558;-71
2022/03/22 02:57:08;;;;;;;;;;;;;;;;;;;;;
2022/03/22 02:59:33;;;;;;;26.07;21.87;;;;;;;;;;4999886;28;20420;-71
2022/03/22 03:02:13;;;;;;;23.63;20.30;;;;;;;;;;4999544;28;20454;-70
2022/03/22 03:04:42;;;;;;;23.50;20.33;;;;;;;;;;5001390;28;20197;-70
2022/03/22 03:07:07;;;;;;;24.67;21.40;;;;;;;;;;4999338;28;20451;-70
2022/03/22 03:09:39;;;;;;;23.30;20.50;;;;;;;;;;5000814;28;20448;-70
2022/03/22 03:12:04;;;;;;;27.13;22.63;;;;;;;;;;5000548;28;20169;-70
2022/03/22 03:14:38;;;;;;;30.80;22.23;;;;;;;;;;5002341;28;20478;-71
2022/03/22 03:17:05;;;;;;;20.90;18.17;;;;;;;;;;4998412;28;20299;-70
2022/03/22 03:19:30;;;;;;;24.97;21.57;;;;;;;;;;4997664;28;20420;-70
2022/03/22 03:21:55;;;;;;;23.50;20.43;;;;;;;;;;4995827;28;20811;-71
2022/03/22 03:24:23;;;;;;;26.93;21.70;;;;;;;;;;4997866;28;20181;-70
2022/03/22 03:26:49;;;;;;;26.13;21.77;;;;;;;;;;4998657;28;20570;-70
2022/03/22 03:29:38;;;;;;;25.20;20.93;;;;;;;;;;5013327;28;20460;-71
2022/03/22 03:32:04;;;;;;;25.53;20.63;;;;;;;;;;5000826;28;20181;-71
2022/03/22 03:34:29;;;;;;;24.00;20.10;;;;;;;;;;5000104;28;20805;-71
2022/03/22 03:36:54;;;;;;;23.60;20.57;;;;;;;;;;4995777;28;20335;-71
2022/03/22 03:39:19;;;;;;;23.83;19.50;;;;;;;;;;4998509;28;20671;-71
2022/03/22 03:41:54;;;;;;;25.80;21.63;;;;;;;;;;5003868;28;20185;-70
2022/03/22 03:47:07;;;;;;;23.67;19.90;;;;;;;;;;5001099;28;21008;-71
2022/03/22 03:49:35;;;;;;;24.13;20.43;;;;;;;;;;5005192;28;20472;-72
2022/03/22 03:52:09;;;;;;;26.73;21.07;;;;;;;;;;5001683;28;20447;-71
2022/03/22 03:54:35;;;;;;;22.63;19.30;;;;;;;;;;5006299;28;20437;-70
2022/03/22 03:57:03;;;;;;;25.30;20.90;;;;;;;;;;5002849;28;20451;-71
2022/03/22 03:59:28;;;;;;;22.10;18.80;;;;;;;;;;5000589;28;20181;-71
2022/03/22 04:01:54;;;;;;;23.80;20.27;;;;;;;;;;5002998;28;20431;-71
2022/03/22 04:04:19;;;;;;;25.00;19.80;;;;;;;;;;5005361;28;20597;-71
2022/03/22 04:06:45;;;;;;;24.80;20.57;;;;;;;;;;5004201;28;20233;-70
2022/03/22 04:09:14;;;;;;;23.43;19.93;;;;;;;;;;5003706;28;20819;-71
2022/03/22 04:11:39;;;;;;;23.57;19.50;;;;;;;;;;5002322;28;20184;-71
2022/03/22 04:14:25;;;;;;;24.10;20.30;;;;;;;;;;5002882;28;20515;-71
2022/03/22 04:16:51;;;;;;;25.07;20.67;;;;;;;;;;5004250;28;20494;-70
2022/03/22 04:19:26;;;;;;;23.50;20.70;;;;;;;;;;5002815;28;20913;-70
2022/03/22 04:21:51;;;;;;;22.33;19.40;;;;;;;;;;5001508;28;20302;-70
2022/03/22 04:24:28;;;;;;;24.20;20.20;;;;;;;;;;5003197;28;20471;-71
2022/03/22 04:32:42;;;;;;;26.30;21.03;;;;;;;;;;5002598;28;20430;-71
2022/03/22 04:35:08;;;;;;;22.50;18.70;;;;;;;;;;5003566;28;20456;-71
2022/03/22 04:37:33;;;;;;;22.97;19.93;;;;;;;;;;5000398;28;20443;-70
2022/03/22 04:39:59;;;;;;;24.93;19.30;;;;;;;;;;5001642;28;20660;-70
2022/03/22 04:42:25;;;;;;;21.23;18.97;;;;;;;;;;5000187;28;20174;-70
2022/03/22 04:44:50;;;;;;;21.60;18.90;;;;;;;;;;5003602;28;20438;-70
2022/03/22 04:47:27;;;;;;;24.63;20.40;;;;;;;;;;5006689;28;20201;-70
2022/03/22 04:49:53;;;;;;;22.70;19.60;;;;;;;;;;5003439;28;20470;-71
2022/03/22 04:57:45;;;;;;;22.30;19.30;;;;;;;;;;5003149;28;20806;-71
2022/03/22 05:00:11;;;;;;;21.10;18.40;;;;;;;;;;5001185;28;20452;-71
2022/03/22 05:02:51;;;;;;;25.90;20.30;;;;;;;;;;5004288;28;20216;-71
2022/03/22 05:06:25;;;;;;;25.73;20.40;;;;;;;;;;5003742;28;20205;-71
2022/03/22 05:08:04;;;;;;;24.30;20.70;;;;;;;;;;4989036;28;20456;-70
2022/03/22 05:10:31;;;;;;;21.77;18.87;;;;;;;;;;5000590;28;20430;-71
2022/03/22 05:12:56;;;;;;;23.20;19.13;;;;;;;;;;5000279;28;20443;-71
2022/03/22 05:15:22;;;;;;;21.50;18.60;;;;;;;;;;4999263;28;20475;-71
2022/03/22 05:17:48;;;;;;;22.57;18.43;;;;;;;;;;5002664;28;20185;-70
2022/03/22 05:20:15;;;;;;;21.83;19.13;;;;;;;;;;5001582;28;20216;-70
2022/03/22 05:23:25;;;;;;;24.87;20.47;;;;;;;;;;4999983;28;20519;-70
2022/03/22 05:25:31;;;;;;;19.70;17.30;;;;;;;;;;4988644;28;20460;-71
2022/03/22 05:27:57;;;;;;;22.60;19.30;;;;;;;;;;4998121;28;20439;-71
2022/03/22 05:30:29;;;;;;;23.70;19.57;;;;;;;;;;4999720;28;20436;-71
2022/03/22 05:32:55;;;;;;;26.10;20.23;;;;;;;;;;5004026;28;20914;-70
2022/03/22 05:35:32;;;;;;;22.27;19.37;;;;;;;;;;4999987;28;20451;-71
2022/03/22 05:38:36;;;;;;;;;;;;;;;;;;;;;
2022/03/22 05:41:04;;;;;;;21.40;19.10;;;;;;;;;;4998624;28;20932;-71
2022/03/22 05:43:35;;;;;;;25.77;20.27;;;;;;;;;;4999278;28;20451;-71
2022/03/22 05:46:01;;;;;;;25.80;19.40;;;;;;;;;;4999344;28;20522;-70
2022/03/22 05:48:38;;;;;;;24.03;19.33;;;;;;;;;;4995505;28;21049;-70
2022/03/22 05:54:03;;;;;;;23.03;19.50;;;;;;;;;;4993790;28;20451;-71
2022/03/22 05:56:32;;;;;;;23.67;19.03;;;;;;;;;;5001549;28;20448;-71
2022/03/22 05:58:59;;;;;;;21.33;18.67;;;;;;;;;;4999205;28;20181;-72
2022/03/22 06:01:28;;;;;;;24.37;18.70;;;;;;;;;;4990335;28;20440;-71
2022/03/22 06:06:40;;;;;;;20.57;18.10;;;;;;;;;;4937152;28;20479;-71
2022/03/22 06:09:18;;;;;;;;;;;;;;;;;;;;;
2022/03/22 06:11:44;;;;;;;23.00;20.23;;;;;;;;;;4992366;28;20180;-71
2022/03/22 06:14:31;;;;;;;22.57;19.90;;;;;;;;;;4996462;28;20432;-71
2022/03/22 06:17:11;;;;;;;24.13;19.40;;;;;;;;;;4994982;28;20688;-71
2022/03/22 06:19:37;;;;;;;23.27;19.43;;;;;;;;;;4991327;28;20436;-72
2022/03/22 06:22:17;;;;;;;22.50;17.80;;;;;;;;;;4997339;28;20436;-71
2022/03/22 06:24:42;;;;;;;25.03;18.90;;;;;;;;;;4996693;28;20205;-71
2022/03/22 06:27:33;;;;;;;24.30;19.57;;;;;;;;;;4994650;28;20543;-72
2022/03/22 06:30:01;;;;;;;21.53;18.20;;;;;;;;;;4993501;28;20365;-71
2022/03/22 06:38:07;;;;;;;21.97;18.97;;;;;;;;;;4973513;28;20470;-71
2022/03/22 06:40:34;;;;;;;19.67;16.93;;;;;;;;;;4993308;28;20436;-71
2022/03/22 06:43:00;;;;;;;23.60;18.93;;;;;;;;;;5007923;28;20440;-70
2022/03/22 06:45:25;;;;;;;23.03;19.30;;;;;;;;;;4997148;28;20971;-71
2022/03/22 06:47:51;;;;;;;23.00;19.73;;;;;;;;;;4995492;28;20432;-71
2022/03/22 06:50:17;;;;;;;25.50;20.00;;;;;;;;;;5002420;23;20692;-77
2022/03/22 06:52:58;;;;;;;;;;;;;;;;;;;;;
2022/03/22 06:55:24;;;;;;;23.40;19.23;;;;;;;;;;4997273;28;20435;-78
2022/03/22 06:57:51;;;;;;;22.20;18.83;;;;;;;;;;4996457;28;20808;-76
2022/03/22 07:00:18;;;;;;;21.53;18.00;;;;;;;;;;4983444;28;20859;-77
2022/03/22 07:02:44;;;;;;;20.53;18.33;;;;;;;;;;4985091;28;20437;-77
2022/03/22 07:05:10;;;;;;;20.37;17.63;;;;;;;;;;4967121;28;21166;-78
2022/03/22 07:10:34;;;;;;;24.83;19.07;;;;;;;;;;4922258;28;20472;-77
2022/03/22 07:13:06;;;;;;;22.07;19.10;;;;;;;;;;4971886;28;20447;-77
2022/03/22 07:16:02;;;;;;;20.30;17.70;;;;;;;;;;4987382;28;20460;-77
2022/03/22 07:18:18;;;;;;;23.80;19.50;;;;;;;;;;4949874;28;20507;-76
2022/03/22 07:20:53;;;;;;;22.77;18.50;;;;;;;;;;4982768;28;23541;-76
2022/03/22 07:23:18;;;;;;;23.97;20.50;;;;;;;;;;4984185;28;20220;-77
2022/03/22 07:25:46;;;;;;;22.73;19.63;;;;;;;;;;4969060;28;21283;-77
2022/03/22 07:28:12;;;;;;;22.70;19.07;;;;;;;;;;4982320;28;20260;-77
2022/03/22 07:30:37;;;;;;;24.50;20.13;;;;;;;;;;4999352;28;20540;-77
2022/03/22 07:33:04;;;;;;;23.40;18.90;;;;;;;;;;4988156;28;20196;-76
2022/03/22 07:35:30;;;;;;;22.43;19.97;;;;;;;;;;4984837;28;20181;-77
2022/03/22 07:37:55;;;;;;;21.33;18.70;;;;;;;;;;4982304;28;20805;-76
2022/03/22 07:40:41;;;;;;;22.10;18.07;;;;;;;;;;4981057;28;20697;-77
2022/03/22 07:43:09;;;;;;;23.87;20.63;;;;;;;;;;4985303;28;20235;-77
2022/03/22 07:45:36;;;;;;;22.10;18.77;;;;;;;;;;4986968;28;20463;-77
2022/03/22 07:48:01;;;;;;;22.90;19.47;;;;;;;;;;4987805;28;20979;-77
2022/03/22 07:53:14;;;;;;;20.43;18.10;;;;;;;;;;4987664;28;20188;-77
2022/03/22 07:55:40;;;;;;;28.27;21.73;;;;;;;;;;4958366;28;20433;-78
2022/03/22 07:58:12;;;;;;;26.20;19.30;;;;;;;;;;4972889;28;20436;-77
2022/03/22 08:03:38;;;;;;;20.63;17.50;;;;;;;;;;4984218;28;20980;-77
2022/03/22 08:06:15;;;;;;;23.87;19.13;;;;;;;;;;4975620;28;20432;-77
2022/03/22 08:09:16;;;;;;;24.90;19.40;;;;;;;;;;4983394;28;20236;-77
2022/03/22 08:11:42;;;;;;;23.83;19.53;;;;;;;;;;4979809;28;20443;-77
2022/03/22 08:14:08;;;;;;;29.60;22.07;;;;;;;;;;4986047;28;20807;-77
2022/03/22 08:16:36;;;;;;;27.10;21.77;;;;;;;;;;4983822;28;20437;-76
2022/03/22 08:19:04;;;;;;;29.40;21.70;;;;;;;;;;4986273;28;20186;-76
2022/03/22 08:21:37;;;;;;;25.43;22.53;;;;;;;;;;4973243;28;20433;-77
2022/03/22 08:24:02;;;;;;;31.23;21.37;;;;;;;;;;4978310;28;20448;-77
2022/03/22 08:26:36;;;;;;;29.43;21.73;;;;;;;;;;4981964;28;20536;-76
2022/03/22 08:29:02;;;;;;;23.43;20.70;;;;;;;;;;4982436;28;20212;-74
2022/03/22 08:31:33;;;;;;;27.63;22.33;;;;;;;;;;4983463;28;20433;-73
2022/03/22 08:36:54;;;;;;;24.80;20.90;;;;;;;;;;4981892;28;20478;-74
2022/03/22 08:39:33;;;;;;;25.50;20.70;;;;;;;;;;4982965;28;20430;-72
2022/03/22 08:42:12;;;;;;;22.80;20.40;;;;;;;;;;4975400;28;20429;-84
2022/03/22 08:44:40;;;;;;;30.27;21.87;;;;;;;;;;4982724;28;20241;-72
2022/03/22 08:47:08;;;;;;;23.73;20.50;;;;;;;;;;4983000;28;20433;-76
2022/03/22 08:49:34;;;;;;;22.20;17.60;;;;;;;;;;4979889;28;20992;-77
2022/03/22 08:52:00;;;;;;;22.03;17.20;;;;;;;;;;4986150;28;20409;-77
2022/03/22 08:54:38;;;;;;;20.10;16.90;;;;;;;;;;4984370;28;20182;-79
2022/03/22 08:57:03;;;;;;;25.03;19.10;;;;;;;;;;4999530;28;20424;-76
2022/03/22 09:00:07;;;;;;;20.87;17.33;;;;;;;;;;4983039;28;20460;-76
2022/03/22 09:02:34;;;;;;;21.97;16.67;;;;;;;;;;4984796;28;20180;-76
2022/03/22 09:07:48;;;;;;;21.07;16.73;;;;;;;;;;4982466;28;20189;-71
2022/03/22 09:10:14;;;;;;;24.33;16.83;;;;;;;;;;4981545;28;20484;-70
2022/03/22 09:12:40;;;;;;;23.47;18.30;;;;;;;;;;4979174;28;20706;-71
2022/03/22 09:15:05;;;;;;;23.83;17.23;;;;;;;;;;4977588;28;20449;-70
2022/03/22 09:17:31;;;;;;;21.87;17.27;;;;;;;;;;4981267;28;20189;-71
2022/03/22 09:19:57;;;;;;;24.83;18.93;;;;;;;;;;4980653;28;20194;-70
2022/03/22 09:22:27;;;;;;;23.97;19.30;;;;;;;;;;4981041;28;20440;-72
2022/03/22 09:24:53;;;;;;;25.00;19.13;;;;;;;;;;4979008;28;20583;-71
2022/03/22 09:27:21;;;;;;;24.00;18.40;;;;;;;;;;4969710;28;20437;-71
2022/03/22 09:29:46;;;;;;;20.93;17.80;;;;;;;;;;4977107;28;21100;-71
2022/03/22 09:32:25;;;;;;;21.20;16.93;;;;;;;;;;4982776;28;20516;-72
2022/03/22 09:34:53;;;;;;;26.47;20.70;;;;;;;;;;4984270;28;20169;-72
2022/03/22 09:37:18;;;;;;;26.20;21.20;;;;;;;;;;4980555;28;21209;-73
2022/03/22 09:39:47;;;;;;;22.77;18.00;;;;;;;;;;4977612;28;20444;-71
2022/03/22 09:42:13;;;;;;;21.53;18.10;;;;;;;;;;4981407;28;20265;-70
2022/03/22 09:44:50;;;;;;;25.63;19.87;;;;;;;;;;4996300;28;20784;-71
2022/03/22 09:47:15;;;;;;;23.23;18.50;;;;;;;;;;4982792;28;20186;-71
2022/03/22 09:49:43;;;;;;;20.07;17.23;;;;;;;;;;4983922;28;20477;-71
2022/03/22 09:52:14;;;;;;;24.63;17.83;;;;;;;;;;4980769;28;20182;-71
2022/03/22 09:54:40;;;;;;;22.83;17.50;;;;;;;;;;4980675;28;20796;-71
2022/03/22 09:57:48;;;;;;;24.53;18.60;;;;;;;;;;4982199;28;20433;-72
2022/03/22 10:00:05;;;;;;;24.70;18.93;;;;;;;;;;4974919;28;20477;-71
2022/03/22 10:02:32;;;;;;;26.97;19.97;;;;;;;;;;4995861;28;20467;-73
2022/03/22 10:04:57;;;;;;;24.00;18.80;;;;;;;;;;4980769;28;20437;-71
2022/03/22 10:07:23;;;;;;;25.30;19.10;;;;;;;;;;4982870;28;20429;-71
2022/03/22 10:09:52;;;;;;;19.73;16.43;;;;;;;;;;5000266;28;20233;-71
2022/03/22 10:12:30;;;;;;;28.00;20.80;;;;;;;;;;4991902;28;20189;-71
2022/03/22 10:15:06;;;;;;;26.00;20.27;;;;;;;;;;4990710;28;20808;-70
2022/03/22 10:17:31;;;;;;;25.93;18.40;;;;;;;;;;4989523;28;20426;-71
2022/03/22 10:19:56;;;;;;;22.97;18.77;;;;;;;;;;4989742;28;20690;-71
2022/03/22 10:22:23;;;;;;;25.63;19.80;;;;;;;;;;4988173;28;20183;-71
2022/03/22 10:24:49;;;;;;;25.67;19.30;;;;;;;;;;4976220;28;20646;-71
2022/03/22 10:33:13;;;;;;;25.00;18.20;;;;;;;;;;4972144;28;21215;-71
2022/03/22 10:35:55;;;;;;;20.03;15.27;;;;;;;;;;4990228;28;20437;-71
2022/03/22 10:38:26;;;;;;;29.13;19.53;;;;;;;;;;4983630;28;20174;-71
2022/03/22 10:40:51;;;;;;;27.27;20.00;;;;;;;;;;4984157;28;20984;-71
2022/03/22 10:43:26;;;;;;;28.40;19.93;;;;;;;;;;4980847;28;20428;-71
2022/03/22 10:45:53;;;;;;;25.83;18.17;;;;;;;;;;4987692;28;20212;-71
2022/03/22 10:48:39;;;;;;;27.67;18.27;;;;;;;;;;4989265;28;20456;-71
2022/03/22 10:51:20;;;;;;;25.73;17.40;;;;;;;;;;4988145;28;20475;-71
2022/03/22 10:53:45;;;;;;;23.73;17.30;;;;;;;;;;4984460;28;20417;-71
2022/03/22 10:56:14;;;;;;;23.80;18.30;;;;;;;;;;4978938;28;20955;-71
2022/03/22 10:59:03;;;;;;;29.00;21.73;;;;;;;;;;4985126;28;20283;-71
2022/03/22 11:01:29;;;;;;;22.10;17.43;;;;;;;;;;4984494;28;20428;-71
2022/03/22 11:03:56;;;;;;;25.90;17.60;;;;;;;;;;4984186;28;20429;-71
2022/03/22 11:06:25;;;;;;;29.97;21.20;;;;;;;;;;5002962;28;20196;-71
2022/03/22 11:08:50;;;;;;;31.87;22.37;;;;;;;;;;4988099;28;20461;-71
2022/03/22 11:11:16;;;;;;;31.53;22.10;;;;;;;;;;4985809;28;20523;-70
2022/03/22 11:13:41;;;;;;;27.23;19.63;;;;;;;;;;4985120;28;20176;-71
2022/03/22 11:16:07;;;;;;;27.37;18.73;;;;;;;;;;4986461;28;20631;-71
2022/03/22 11:18:32;;;;;;;30.03;21.67;;;;;;;;;;4988805;28;20611;-71
2022/03/22 11:20:59;;;;;;;34.00;21.97;;;;;;;;;;4975003;28;20201;-71
2022/03/22 11:23:25;;;;;;;37.60;23.03;;;;;;;;;;4982886;28;20194;-71
2022/03/22 11:25:53;;;;;;;29.77;22.03;;;;;;;;;;4981380;28;20838;-71
2022/03/22 11:28:20;;;;;;;31.23;21.40;;;;;;;;;;4981299;28;20456;-72
2022/03/22 11:30:55;;;;;;;26.70;18.70;;;;;;;;;;4982471;28;20456;-71
2022/03/22 11:36:15;;;;;;;34.53;24.67;;;;;;;;;;4984747;28;20439;-71
2022/03/22 11:38:40;;;;;;;28.20;21.57;;;;;;;;;;4986500;28;20536;-71
2022/03/22 11:44:02;;;;;;;36.03;25.03;;;;;;;;;;4969219;28;20633;-71
2022/03/22 11:46:32;;;;;;;28.10;20.50;;;;;;;;;;4969837;28;20436;-71
2022/03/22 11:49:52;;;;;;;37.17;23.23;;;;;;;;;;4966283;28;20464;-71
2022/03/22 11:52:09;;;;;;;40.23;25.33;;;;;;;;;;4960653;28;20440;-71
2022/03/22 11:54:36;;;;;;;31.13;21.80;;;;;;;;;;4969136;28;20429;-72
2022/03/22 11:57:18;;;;;;;30.17;21.40;;;;;;;;;;4956312;28;20486;-72
2022/03/22 11:59:45;;;;;;;28.87;22.63;;;;;;;;;;4976755;28;20464;-70
2022/03/22 12:02:17;;;;;;;31.50;23.33;;;;;;;;;;4971253;28;20440;-71
2022/03/22 12:04:51;;;;;;;32.60;24.30;;;;;;;;;;4990407;28;20594;-72
2022/03/22 12:07:20;;;;;;;32.87;23.97;;;;;;;;;;4978220;28;20940;-72
2022/03/22 12:10:02;;;;;;;29.07;21.83;;;;;;;;;;4965334;28;20470;-72
2022/03/22 12:12:27;;;;;;;34.77;23.50;;;;;;;;;;4981729;28;20421;-70
2022/03/22 12:14:54;;;;;;;31.03;23.60;;;;;;;;;;4979846;28;20421;-73
2022/03/22 12:17:19;;;;;;;29.30;22.30;;;;;;;;;;4967911;28;20257;-74
2022/03/22 12:19:44;;;;;;;27.90;21.90;;;;;;;;;;4978718;28;20537;-71
2022/03/22 12:22:10;;;;;;;27.80;20.40;;;;;;;;;;4978882;28;20491;-71
2022/03/22 12:24:35;;;;;;;29.90;21.60;;;;;;;;;;4972476;28;20724;-73
2022/03/22 12:27:02;;;;;;;26.10;19.70;;;;;;;;;;4996361;28;20281;-71
2022/03/22 12:29:27;;;;;;;23.20;18.63;;;;;;;;;;4981565;28;20305;-73
2022/03/22 12:31:54;;;;;;;24.87;18.33;;;;;;;;;;4985335;28;20419;-72
2022/03/22 12:34:22;;;;;;;23.27;18.63;;;;;;;;;;4987014;28;20177;-72
2022/03/22 12:36:50;;;;;;;27.03;19.60;;;;;;;;;;4954937;28;20434;-72
2022/03/22 12:39:16;;;;;;;28.70;20.87;;;;;;;;;;4962366;28;20444;-74
2022/03/22 12:41:43;;;;;;;25.10;19.33;;;;;;;;;;4971765;28;21324;-75
2022/03/22 12:44:09;;;;;;;24.70;18.47;;;;;;;;;;4981698;28;20191;-73
2022/03/22 12:46:35;;;;;;;21.13;17.63;;;;;;;;;;4986360;28;20436;-73
2022/03/22 12:49:02;;;;;;;28.53;20.63;;;;;;;;;;4977438;28;20205;-72
2022/03/22 12:51:28;;;;;;;28.80;21.10;;;;;;;;;;5012858;22;20885;-68
2022/03/22 12:53:53;;;;;;;24.27;17.97;;;;;;;;;;4979539;28;20452;-69
2022/03/22 12:56:20;;;;;;;31.77;23.00;;;;;;;;;;4971042;28;20213;-70
2022/03/22 12:58:45;;;;;;;27.50;21.17;;;;;;;;;;4985191;28;20280;-68
2022/03/22 13:01:21;;;;;;;24.40;19.20;;;;;;;;;;4977406;28;21011;-67
2022/03/22 13:03:47;;;;;;;34.17;24.43;;;;;;;;;;4985031;28;20260;-68
2022/03/22 13:06:12;;;;;;;33.63;24.50;;;;;;;;;;4975517;28;20433;-68
2022/03/22 13:11:29;;;;;;;25.20;19.90;;;;;;;;;;4981830;28;20215;-70
2022/03/22 13:16:47;;;;;;;24.67;16.67;;;;;;;;;;4973665;28;20561;-68
2022/03/22 13:19:12;;;;;;;24.27;18.30;;;;;;;;;;4982826;28;20447;-69
2022/03/22 13:21:39;;;;;;;27.83;18.77;;;;;;;;;;4980129;28;20856;-70
2022/03/22 13:24:12;;;;;;;33.70;20.57;;;;;;;;;;4971309;28;20236;-69
2022/03/22 13:26:58;;;;;;;33.73;22.10;;;;;;;;;;4981212;28;21263;-70
2022/03/22 13:29:25;;;;;;;31.67;23.60;;;;;;;;;;4981284;28;20551;-69
2022/03/22 13:31:59;;;;;;;31.17;23.70;;;;;;;;;;4982163;28;20863;-69
2022/03/22 13:34:28;;;;;;;35.77;24.90;;;;;;;;;;4989246;28;20435;-68
2022/03/22 13:37:03;;;;;;;23.93;18.80;;;;;;;;;;4983188;28;20460;-69
2022/03/22 13:39:28;;;;;;;26.83;19.17;;;;;;;;;;4979638;28;20435;-69
2022/03/22 13:42:03;;;;;;;29.03;19.90;;;;;;;;;;4971826;28;20456;-70
2022/03/22 13:44:28;;;;;;;27.27;19.77;;;;;;;;;;4974519;28;20189;-69
2022/03/22 13:46:59;;;;;;;23.40;17.90;;;;;;;;;;4977515;28;20471;-68
2022/03/22 13:49:34;;;;;;;23.07;17.73;;;;;;;;;;4983854;28;20212;-68
2022/03/22 13:52:05;;;;;;;23.67;18.00;;;;;;;;;;4983650;28;20444;-69
2022/03/22 13:54:30;;;;;;;23.37;16.80;;;;;;;;;;4987076;28;20421;-69
2022/03/22 13:57:06;;;;;;;22.10;15.97;;;;;;;;;;4986050;28;20508;-70
2022/03/22 13:59:37;;;;;;;27.33;20.13;;;;;;;;;;4983651;28;20186;-69
2022/03/22 14:02:05;;;;;;;32.03;23.17;;;;;;;;;;4977195;28;20440;-70
2022/03/22 14:04:30;;;;;;;27.37;20.07;;;;;;;;;;4999192;28;20424;-69
2022/03/22 14:06:56;;;;;;;23.73;18.00;;;;;;;;;;4978453;28;20446;-68
2022/03/22 14:09:22;;;;;;;24.50;17.80;;;;;;;;;;4980971;28;20201;-68
2022/03/22 14:11:47;;;;;;;20.50;16.10;;;;;;;;;;4979896;28;20214;-69
2022/03/22 14:14:13;;;;;;;22.40;17.93;;;;;;;;;;4987265;28;20909;-69
2022/03/22 14:16:38;;;;;;;22.50;19.07;;;;;;;;;;4982900;28;20927;-69
2022/03/22 14:19:13;;;;;;;28.67;20.20;;;;;;;;;;4982304;28;20208;-68
2022/03/22 14:21:48;;;;;;;22.90;18.10;;;;;;;;;;4986388;28;20319;-68
2022/03/22 14:24:14;;;;;;;21.80;16.83;;;;;;;;;;4981869;28;20809;-68
2022/03/22 14:26:45;;;;;;;21.20;16.27;;;;;;;;;;4979503;28;20436;-69
2022/03/22 14:29:11;;;;;;;24.37;17.77;;;;;;;;;;4985078;28;20484;-69
2022/03/22 14:31:40;;;;;;;22.83;17.00;;;;;;;;;;4981678;28;20457;-69
2022/03/22 14:35:46;;;;;;;24.27;15.87;;;;;;;;;;4982100;28;20182;-72
2022/03/22 14:36:53;;;;;;;26.50;18.40;;;;;;;;;;4984277;28;20471;-71
2022/03/22 14:39:27;;;;;;;25.73;19.73;;;;;;;;;;4986480;28;20634;-71
2022/03/22 14:41:55;;;;;;;24.07;18.67;;;;;;;;;;4988356;28;20231;-70
2022/03/22 14:44:20;;;;;;;24.50;17.77;;;;;;;;;;4989392;28;20437;-71
2022/03/22 14:46:48;;;;;;;24.10;18.67;;;;;;;;;;4979543;28;20448;-69
2022/03/22 14:49:15;;;;;;;24.00;18.00;;;;;;;;;;4973938;28;20579;-69
2022/03/22 14:54:24;;;;;;;24.07;19.10;;;;;;;;;;4967245;28;20487;-69
2022/03/22 14:59:35;;;;;;;27.20;20.53;;;;;;;;;;4979847;28;20424;-69
2022/03/22 15:02:00;;;;;;;26.13;20.10;;;;;;;;;;4979625;28;20448;-67
2022/03/22 15:04:29;;;;;;;23.80;17.30;;;;;;;;;;4980737;28;20177;-69
2022/03/22 15:06:54;;;;;;;23.90;17.27;;;;;;;;;;4980399;28;20204;-71
2022/03/22 15:09:20;;;;;;;22.10;17.40;;;;;;;;;;4980229;28;20563;-72
2022/03/22 15:11:45;;;;;;;24.87;17.90;;;;;;;;;;4984005;28;20211;-72
2022/03/22 15:14:15;;;;;;;24.10;18.53;;;;;;;;;;4986995;28;20264;-73
2022/03/22 15:16:41;;;;;;;19.83;16.47;;;;;;;;;;4987854;28;20255;-70
2022/03/22 15:19:06;;;;;;;26.47;18.47;;;;;;;;;;4987057;28;20681;-69
2022/03/22 15:21:32;;;;;;;29.60;19.17;;;;;;;;;;4986847;28;20456;-70
2022/03/22 15:23:57;;;;;;;21.47;17.20;;;;;;;;;;4983643;28;20182;-71
2022/03/22 15:26:23;;;;;;;21.70;16.93;;;;;;;;;;4985895;28;20173;-70
2022/03/22 15:28:48;;;;;;;26.50;18.60;;;;;;;;;;4978616;28;20186;-69
2022/03/22 15:31:17;;;;;;;21.93;16.23;;;;;;;;;;4978766;28;20210;-69
2022/03/22 15:33:42;;;;;;;24.00;18.63;;;;;;;;;;4980074;28;20185;-69
2022/03/22 15:36:13;;;;;;;22.60;17.60;;;;;;;;;;4979421;28;20433;-70
2022/03/22 15:38:39;;;;;;;26.70;19.67;;;;;;;;;;4982427;28;20205;-72
2022/03/22 15:41:04;;;;;;;25.17;20.20;;;;;;;;;;4984852;28;20464;-70
2022/03/22 15:43:29;;;;;;;23.40;18.17;;;;;;;;;;4981777;28;20451;-70
2022/03/22 15:45:54;;;;;;;22.53;18.20;;;;;;;;;;4987696;28;20181;-70
2022/03/22 15:48:22;;;;;;;33.30;21.80;;;;;;;;;;4985334;28;20646;-71
2022/03/22 15:50:48;;;;;;;27.97;21.63;;;;;;;;;;4985525;28;20213;-70
2022/03/22 15:53:13;;;;;;;28.10;20.10;;;;;;;;;;4983823;28;20478;-70